»·PEaware :: UAL1161 KBUR-KDEN

UAL1161 :: KBUR-KDEN

FLIGHT INFORMATION

Flight Status: Arrived
Operator:
United Airlines
More flights by this operator :: More flights under this callsign
Pilot: Jessica F. (17029)
Aircraft: AIRBUS A319
(A319)
More flights by this aircraft type
Origin: KBUR Bob Hope-Burbank
United States
Destination: KDEN Denver Intl
United States
More flights between these airports :: More routes between these airports
Route: +SLAPP1 LAS J146 DVC WOLLF TELLR2
File this flight plan on PilotEdge
Remarks: PBN / A1B1C1D1O1S1 DOF / 180423 REG / N530VA EET / KZDV0053 OPR / UAL PER / C RMK / TCAS SIMBRIEF
Altitude:
(Current/Filed)
37,000ft
Speed:
(Current/Filed)
445kts
Departed: 23-Apr-18 03:44 PM
Arrived: 23-Apr-18 05:42 PM
Distance/Time
Traveled:
737nm/1:58
Distance/Time
To Go:
Arrived

Flight Plot

Page will automatically refresh every two minutes.

Flight plan parsing failed; only flown route is shown


Map Options




Map Legend


Flown Route
Filed Route
Departure Airport
Arrival Airport
Navaid (VOR, NDB)
Fix

Horizontal Profiles

Position Reports

Time Latitude Longitude Heading Altitude Ground
Speed
23-Apr-18 15:23 34.196089 -118.354911 124 786ft 0kts
23-Apr-18 15:24 34.196089 -118.354911 124 786ft 0kts
23-Apr-18 15:25 34.196089 -118.354911 124 786ft 0kts
23-Apr-18 15:26 34.196089 -118.354911 124 786ft 0kts
23-Apr-18 15:27 34.196089 -118.354911 124 786ft 0kts
23-Apr-18 15:28 34.196089 -118.354911 124 786ft 0kts
23-Apr-18 15:29 34.196089 -118.354911 124 786ft 0kts
23-Apr-18 15:30 34.196089 -118.354911 124 786ft 0kts
23-Apr-18 15:31 34.196089 -118.354911 124 786ft 0kts
23-Apr-18 15:32 34.196089 -118.354911 124 786ft 0kts
23-Apr-18 15:33 34.196090 -118.354911 124 786ft 0kts
23-Apr-18 15:34 34.196123 -118.355120 66 786ft 2kts
23-Apr-18 15:35 34.195811 -118.355274 346 786ft 0kts
23-Apr-18 15:36 34.195811 -118.355274 346 786ft 0kts
23-Apr-18 15:37 34.195811 -118.355274 346 786ft 0kts
23-Apr-18 15:38 34.195811 -118.355274 346 786ft 0kts
23-Apr-18 15:39 34.198816 -118.355354 347 786ft 27kts
23-Apr-18 15:40 34.206128 -118.357404 348 786ft 27kts
23-Apr-18 15:41 34.211614 -118.359157 311 786ft 0kts
23-Apr-18 15:42 34.211614 -118.359157 311 786ft 0kts
23-Apr-18 15:43 34.203513 -118.358002 166 786ft 133kts
23-Apr-18 15:44 34.167706 -118.371205 222 3223ft 170kts
23-Apr-18 15:45 34.124915 -118.416809 223 5157ft 245kts
23-Apr-18 15:46 34.134477 -118.490694 333 7797ft 281kts
23-Apr-18 15:47 34.208697 -118.470577 23 10526ft 298kts
23-Apr-18 15:48 34.286532 -118.427849 22 13331ft 319kts
23-Apr-18 15:49 34.365250 -118.385030 22 16020ft 328kts
23-Apr-18 15:50 34.447176 -118.340240 24 18787ft 325kts
23-Apr-18 15:51 34.517834 -118.277293 38 21524ft 309kts
23-Apr-18 15:52 34.584728 -118.210233 38 23084ft 322kts
23-Apr-18 15:53 34.653991 -118.139530 47 24565ft 333kts
23-Apr-18 15:54 34.681324 -118.032297 79 25911ft 343kts
23-Apr-18 15:55 34.694772 -117.916855 86 27208ft 352kts
23-Apr-18 15:56 34.701840 -117.797489 86 28416ft 360kts
23-Apr-18 15:57 34.707534 -117.675393 87 29646ft 365kts
23-Apr-18 15:58 34.717196 -117.555560 76 31255ft 350kts
23-Apr-18 15:59 34.758506 -117.456562 50 32435ft 335kts
23-Apr-18 16:00 34.790573 -117.352876 77 33206ft 335kts
23-Apr-18 16:01 34.804906 -117.239770 78 33686ft 343kts
23-Apr-18 16:02 34.831325 -117.141543 69 34109ft 348kts
23-Apr-18 16:03 34.864907 -117.033326 69 34793ft 340kts
23-Apr-18 16:04 34.889521 -116.925410 78 35063ft 348kts
23-Apr-18 16:05 34.917500 -116.809235 65 35272ft 352kts
23-Apr-18 16:06 34.971574 -116.704924 48 35085ft 377kts
23-Apr-18 16:07 35.042110 -116.608266 45 35336ft 393kts
23-Apr-18 16:08 35.117350 -116.508777 44 35127ft 424kts
23-Apr-18 16:09 35.197692 -116.396053 46 34997ft 457kts
23-Apr-18 16:10 35.280669 -116.279159 47 34990ft 475kts
23-Apr-18 16:11 35.366251 -116.157736 47 34994ft 475kts
23-Apr-18 16:12 35.452007 -116.035884 47 34995ft 475kts
23-Apr-18 16:13 35.537128 -115.914524 47 34995ft 475kts
23-Apr-18 16:14 35.622420 -115.792487 47 34995ft 475kts
23-Apr-18 16:15 35.709516 -115.671979 45 34995ft 475kts
23-Apr-18 16:16 35.797157 -115.551436 45 34995ft 475kts
23-Apr-18 16:17 35.884302 -115.430914 45 34979ft 475kts
23-Apr-18 16:18 35.970001 -115.311855 46 34966ft 475kts
23-Apr-18 16:19 36.054230 -115.188241 53 34980ft 477kts
23-Apr-18 16:20 36.115027 -115.044859 68 34960ft 479kts
23-Apr-18 16:21 36.161226 -114.894314 68 34970ft 479kts
23-Apr-18 16:22 36.208147 -114.741430 68 34970ft 479kts
23-Apr-18 16:23 36.255092 -114.587786 68 34970ft 479kts
23-Apr-18 16:24 36.301759 -114.434137 68 34970ft 479kts
23-Apr-18 16:25 36.347664 -114.281971 69 34957ft 479kts
23-Apr-18 16:26 36.393714 -114.128370 69 34981ft 479kts
23-Apr-18 16:27 36.439865 -113.973905 69 35014ft 479kts
23-Apr-18 16:28 36.485566 -113.820128 69 35020ft 479kts
23-Apr-18 16:29 36.531173 -113.665827 69 35021ft 479kts
23-Apr-18 16:30 36.576645 -113.511146 69 35021ft 479kts
23-Apr-18 16:31 36.621653 -113.357141 68 35021ft 480kts
23-Apr-18 16:32 36.666821 -113.200585 67 35116ft 488kts
23-Apr-18 16:33 36.712280 -113.043530 68 35152ft 485kts
23-Apr-18 16:34 36.757384 -112.886167 68 35158ft 485kts
23-Apr-18 16:35 36.802507 -112.728018 68 35159ft 485kts
23-Apr-18 16:36 36.839967 -112.596087 68 35158ft 485kts
23-Apr-18 16:37 36.884459 -112.438544 68 35160ft 485kts
23-Apr-18 16:38 36.928416 -112.280712 67 35143ft 489kts
23-Apr-18 16:39 36.973031 -112.121462 69 35137ft 485kts
23-Apr-18 16:40 37.016747 -111.963522 69 35078ft 486kts
23-Apr-18 16:41 37.060599 -111.804535 68 35058ft 487kts
23-Apr-18 16:42 37.104371 -111.644882 66 35041ft 497kts
23-Apr-18 16:43 37.148377 -111.485393 67 35051ft 497kts
23-Apr-18 16:44 37.191813 -111.325045 67 35018ft 497kts
23-Apr-18 16:45 37.233860 -111.168391 67 35051ft 498kts
23-Apr-18 16:46 37.277453 -111.005389 67 35051ft 498kts
23-Apr-18 16:47 37.320566 -110.843173 67 35051ft 498kts
23-Apr-18 16:48 37.363043 -110.682562 68 35052ft 485kts
23-Apr-18 16:49 37.405444 -110.520821 68 35052ft 484kts
23-Apr-18 16:50 37.446760 -110.362390 68 35141ft 484kts
23-Apr-18 16:51 37.487701 -110.203915 69 35175ft 484kts
23-Apr-18 16:52 37.528828 -110.044091 69 35183ft 483kts
23-Apr-18 16:53 37.569794 -109.884024 69 35185ft 483kts
23-Apr-18 16:54 37.610566 -109.723699 69 35185ft 483kts
23-Apr-18 16:55 37.651337 -109.562353 69 35184ft 483kts
23-Apr-18 16:56 37.691375 -109.403003 70 35184ft 478kts
23-Apr-18 16:57 37.729044 -109.251600 71 35179ft 478kts
23-Apr-18 16:58 37.767585 -109.096062 70 35186ft 477kts
23-Apr-18 16:59 37.809471 -108.939743 63 35182ft 475kts
23-Apr-18 17:00 37.873385 -108.796705 54 35146ft 473kts
23-Apr-18 17:01 37.941786 -108.657349 55 35135ft 473kts
23-Apr-18 17:02 38.010275 -108.516466 55 35132ft 474kts
23-Apr-18 17:03 38.077647 -108.377237 55 35133ft 473kts
23-Apr-18 17:04 38.140811 -108.246395 55 35124ft 474kts
23-Apr-18 17:05 38.205101 -108.112668 55 35158ft 473kts
23-Apr-18 17:06 38.272081 -107.972552 55 35163ft 471kts
23-Apr-18 17:07 38.337905 -107.834260 55 35122ft 473kts
23-Apr-18 17:08 38.400629 -107.701867 55 35110ft 473kts
23-Apr-18 17:09 38.463650 -107.567722 56 35106ft 474kts
23-Apr-18 17:10 38.526003 -107.428497 56 34512ft 468kts
23-Apr-18 17:11 38.586931 -107.292094 57 31963ft 479kts
23-Apr-18 17:12 38.647815 -107.155134 57 30220ft 482kts
23-Apr-18 17:13 38.711063 -107.012584 57 28409ft 475kts
23-Apr-18 17:14 38.774034 -106.870048 57 27178ft 465kts
23-Apr-18 17:15 38.836127 -106.729042 57 27178ft 465kts
23-Apr-18 17:16 38.899676 -106.588151 55 27177ft 464kts
23-Apr-18 17:17 38.961593 -106.454988 56 27238ft 463kts
23-Apr-18 17:18 39.022746 -106.322062 57 26707ft 459kts
23-Apr-18 17:19 39.083264 -106.188089 57 26181ft 440kts
23-Apr-18 17:20 39.139615 -106.062775 57 24137ft 441kts
23-Apr-18 17:21 39.195356 -105.936539 57 22004ft 433kts
23-Apr-18 17:22 39.251193 -105.809709 59 20218ft 414kts
23-Apr-18 17:23 39.305347 -105.685938 59 18442ft 398kts
23-Apr-18 17:24 39.358065 -105.565564 59 17293ft 364kts
23-Apr-18 17:25 39.395969 -105.458215 82 17298ft 320kts
23-Apr-18 17:26 39.400663 -105.348767 87 17126ft 315kts
23-Apr-18 17:27 39.405670 -105.236461 88 15671ft 316kts
23-Apr-18 17:28 39.410974 -105.122356 88 14241ft 312kts
23-Apr-18 17:29 39.415658 -105.012789 89 12858ft 302kts
23-Apr-18 17:30 39.421385 -104.908958 85 11994ft 274kts
23-Apr-18 17:31 39.429731 -104.818009 86 11209ft 251kts
23-Apr-18 17:32 39.444146 -104.731326 69 10061ft 247kts
23-Apr-18 17:33 39.489484 -104.678707 16 8936ft 229kts
23-Apr-18 17:34 39.549875 -104.663206 2 7314ft 223kts
23-Apr-18 17:35 39.609473 -104.663072 2 7022ft 203kts
23-Apr-18 17:36 39.656569 -104.662656 2 7002ft 163kts
23-Apr-18 17:37 39.701436 -104.662122 3 7004ft 159kts
23-Apr-18 17:38 39.745077 -104.661565 3 7008ft 159kts
23-Apr-18 17:39 39.788868 -104.661019 3 6255ft 153kts
23-Apr-18 17:40 39.830678 -104.660497 1 5454ft 143kts
23-Apr-18 17:41 39.850369 -104.662359 346 5443ft 0kts
23-Apr-18 17:42 39.855466 -104.662313 0 5443ft 33kts
23-Apr-18 17:43 39.860183 -104.666648 270 5443ft 24kts
23-Apr-18 17:44 39.859376 -104.669594 181 5443ft 0kts
23-Apr-18 17:45 39.859208 -104.669600 181 5443ft 0kts
23-Apr-18 17:46 39.859208 -104.669600 181 5443ft 0kts
23-Apr-18 17:47 39.859208 -104.669600 181 5443ft 0kts
23-Apr-18 17:48 39.859208 -104.669600 181 5443ft 0kts
23-Apr-18 17:49 39.859208 -104.669600 181 5443ft 0kts

Navigation Log

Ident Type
Flight plan parsing failed, navigation log unavailable